Time;durP1;ratioP1;P1;durP2;ratioP2;P2;SDS_P1;SDS_P2;PMS_P1;PMS_P2;Temp;Humidity;BMP_temperature;BMP_pressure;BME280_temperature;BME280_humidity;BME280_pressure;Samples;Min_cycle;Max_cycle;Signal;HPM_P1;HPM_P2
2022/07/27 00:01:26;;;;;;;15.68;8.40;;;;;;;;;;5099631;28;20039;-71
2022/07/27 00:04:30;;;;;;;15.63;9.35;;;;;;;;;;5112257;28;20047;-70
2022/07/27 00:07:37;;;;;;;19.58;9.48;;;;;;;;;;5112343;28;20032;-70
2022/07/27 00:10:44;;;;;;;15.30;8.65;;;;;;;;;;5112478;28;20036;-71
2022/07/27 00:13:48;;;;;;;21.73;9.45;;;;;;;;;;5112215;28;20617;-71
2022/07/27 00:16:52;;;;;;;17.48;8.82;;;;;;;;;;5099363;28;20040;-71
2022/07/27 00:19:57;;;;;;;23.65;9.82;;;;;;;;;;5112501;28;20368;-72
2022/07/27 00:23:01;;;;;;;18.98;9.13;;;;;;;;;;5099567;28;20031;-71
2022/07/27 00:26:06;;;;;;;26.10;9.95;;;;;;;;;;5112347;28;20028;-71
2022/07/27 00:29:10;;;;;;;18.63;9.10;;;;;;;;;;5112327;28;20040;-71
2022/07/27 00:32:14;;;;;;;16.60;9.90;;;;;;;;;;5099749;28;20035;-71
2022/07/27 00:35:21;;;;;;;16.27;9.52;;;;;;;;;;5112135;28;20044;-72
2022/07/27 00:38:26;;;;;;;18.33;9.45;;;;;;;;;;5111857;28;20028;-71
2022/07/27 00:41:30;;;;;;;19.30;9.02;;;;;;;;;;5112101;28;20035;-72
2022/07/27 00:44:35;;;;;;;15.10;9.20;;;;;;;;;;5112128;28;20039;-71
2022/07/27 00:47:39;;;;;;;13.57;8.75;;;;;;;;;;5112045;28;20039;-71
2022/07/27 00:50:46;;;;;;;14.90;9.20;;;;;;;;;;5099415;28;20057;-71
2022/07/27 00:53:52;;;;;;;21.58;10.30;;;;;;;;;;5111821;28;20383;-71
2022/07/27 00:56:56;;;;;;;14.13;9.30;;;;;;;;;;5111646;28;20046;-72
2022/07/27 01:00:01;;;;;;;19.52;9.50;;;;;;;;;;5111981;28;20028;-72
2022/07/27 01:03:05;;;;;;;16.75;9.90;;;;;;;;;;5098979;28;20514;-71
2022/07/27 01:06:09;;;;;;;13.43;9.77;;;;;;;;;;5111778;28;20039;-71
2022/07/27 01:12:36;;;;;;;17.23;9.50;;;;;;;;;;5112023;28;20394;-71
2022/07/27 01:15:41;;;;;;;13.68;9.20;;;;;;;;;;5111487;28;20051;-71
2022/07/27 01:18:45;;;;;;;14.18;9.52;;;;;;;;;;5099236;28;20031;-70
2022/07/27 01:21:50;;;;;;;18.15;9.85;;;;;;;;;;5112467;28;20036;-71
2022/07/27 01:24:54;;;;;;;24.75;9.98;;;;;;;;;;5111810;28;20494;-70
2022/07/27 01:27:59;;;;;;;16.38;9.35;;;;;;;;;;5111618;28;20047;-70
2022/07/27 01:31:03;;;;;;;19.63;9.38;;;;;;;;;;5115965;28;20031;-71
2022/07/27 01:34:08;;;;;;;22.48;10.35;;;;;;;;;;5115698;28;20044;-71
2022/07/27 01:37:12;;;;;;;18.60;10.88;;;;;;;;;;5103055;28;20517;-71
2022/07/27 01:40:17;;;;;;;21.90;11.02;;;;;;;;;;5115450;28;20043;-70
2022/07/27 01:43:21;;;;;;;13.70;10.55;;;;;;;;;;5102802;28;20051;-70
2022/07/27 01:46:25;;;;;;;14.48;10.45;;;;;;;;;;5115742;28;20387;-71
2022/07/27 01:49:29;;;;;;;11.32;9.88;;;;;;;;;;5115411;28;20042;-70
2022/07/27 01:52:34;;;;;;;16.60;9.73;;;;;;;;;;5115331;28;20031;-70
2022/07/27 01:55:39;;;;;;;15.57;10.50;;;;;;;;;;5115052;28;20050;-69
2022/07/27 01:58:44;;;;;;;16.38;9.57;;;;;;;;;;5102360;28;20039;-70
2022/07/27 02:01:49;;;;;;;20.60;10.50;;;;;;;;;;5114998;28;20047;-70
2022/07/27 02:04:53;;;;;;;11.73;9.35;;;;;;;;;;5115160;28;20051;-71
2022/07/27 02:07:58;;;;;;;13.57;10.38;;;;;;;;;;5115129;28;20031;-70
2022/07/27 02:14:26;;;;;;;14.60;10.75;;;;;;;;;;5114780;28;20047;-70
2022/07/27 02:17:30;;;;;;;15.98;10.73;;;;;;;;;;5102472;28;20058;-70
2022/07/27 02:20:35;;;;;;;16.85;10.80;;;;;;;;;;5114965;28;20043;-70
2022/07/27 02:23:40;;;;;;;15.63;10.85;;;;;;;;;;5102152;28;20050;-70
2022/07/27 02:26:44;;;;;;;19.02;10.98;;;;;;;;;;5114876;28;20419;-70
2022/07/27 02:29:49;;;;;;;16.27;10.80;;;;;;;;;;5114430;28;20050;-70
2022/07/27 02:32:53;;;;;;;16.55;11.68;;;;;;;;;;5114628;28;20039;-70
2022/07/27 02:35:57;;;;;;;14.55;11.20;;;;;;;;;;5114066;28;20521;-70
2022/07/27 02:39:01;;;;;;;19.13;11.90;;;;;;;;;;5114409;28;20387;-70
2022/07/27 02:42:05;;;;;;;29.63;12.05;;;;;;;;;;5114088;28;20043;-70
2022/07/27 02:45:10;;;;;;;21.23;12.02;;;;;;;;;;5114629;28;20047;-70
2022/07/27 02:48:15;;;;;;;20.85;12.23;;;;;;;;;;5102150;28;20043;-70
2022/07/27 02:51:22;;;;;;;15.15;10.80;;;;;;;;;;5114078;28;20399;-71
2022/07/27 02:54:31;;;;;;;19.60;11.80;;;;;;;;;;5114486;28;20043;-70
2022/07/27 02:57:36;;;;;;;19.27;11.65;;;;;;;;;;5114131;28;20034;-70
2022/07/27 03:00:40;;;;;;;15.80;12.57;;;;;;;;;;5101572;28;20046;-70
2022/07/27 03:03:45;;;;;;;21.75;12.02;;;;;;;;;;5114194;28;20059;-70
2022/07/27 03:06:49;;;;;;;17.35;12.13;;;;;;;;;;5101318;28;20497;-70
2022/07/27 03:09:53;;;;;;;17.73;11.88;;;;;;;;;;5114002;28;20046;-70
2022/07/27 03:12:58;;;;;;;17.77;11.80;;;;;;;;;;5113854;28;20047;-70
2022/07/27 03:16:02;;;;;;;19.20;13.55;;;;;;;;;;5113461;28;20059;-70
2022/07/27 03:19:06;;;;;;;16.60;12.30;;;;;;;;;;5113761;28;20046;-70
2022/07/27 03:22:11;;;;;;;14.77;11.57;;;;;;;;;;5113475;28;20042;-70
2022/07/27 03:25:15;;;;;;;21.08;12.13;;;;;;;;;;5113625;28;20506;-71
2022/07/27 03:28:20;;;;;;;18.05;11.90;;;;;;;;;;5113366;28;20043;-70
2022/07/27 03:31:24;;;;;;;13.90;11.38;;;;;;;;;;5100663;28;20038;-70
2022/07/27 03:34:28;;;;;;;18.90;12.52;;;;;;;;;;5101164;28;20050;-70
2022/07/27 03:37:33;;;;;;;16.80;12.23;;;;;;;;;;5113426;28;20046;-71
2022/07/27 03:40:37;;;;;;;22.33;12.95;;;;;;;;;;5088863;28;20034;-71
2022/07/27 03:43:42;;;;;;;21.73;11.75;;;;;;;;;;5113390;28;20055;-71
2022/07/27 03:46:46;;;;;;;19.95;11.07;;;;;;;;;;5113321;28;20046;-71
2022/07/27 03:49:51;;;;;;;19.67;11.70;;;;;;;;;;5112746;28;20061;-71
2022/07/27 03:52:55;;;;;;;18.38;11.93;;;;;;;;;;5112155;28;20055;-70
2022/07/27 03:56:00;;;;;;;13.48;11.70;;;;;;;;;;5112780;28;20054;-70
2022/07/27 03:59:05;;;;;;;13.50;10.82;;;;;;;;;;5100298;28;20039;-70
2022/07/27 04:02:09;;;;;;;17.50;10.93;;;;;;;;;;5112739;28;20055;-72
2022/07/27 04:05:13;;;;;;;18.23;11.27;;;;;;;;;;5112333;28;20058;-69
2022/07/27 04:08:20;;;;;;;15.43;11.52;;;;;;;;;;5099827;28;20043;-71
2022/07/27 04:11:24;;;;;;;17.55;10.88;;;;;;;;;;5099930;28;20039;-70
2022/07/27 04:14:29;;;;;;;20.58;11.73;;;;;;;;;;5112677;28;20046;-71
2022/07/27 04:17:34;;;;;;;25.13;12.20;;;;;;;;;;5112631;28;20502;-71
2022/07/27 04:20:38;;;;;;;22.88;11.55;;;;;;;;;;5112859;28;20031;-71
2022/07/27 04:23:43;;;;;;;23.13;11.32;;;;;;;;;;5112716;28;20050;-70
2022/07/27 04:26:48;;;;;;;18.05;11.73;;;;;;;;;;5112413;28;20498;-70
2022/07/27 04:29:52;;;;;;;22.70;11.00;;;;;;;;;;5112242;28;20054;-71
2022/07/27 04:32:57;;;;;;;16.77;11.50;;;;;;;;;;5112527;28;20049;-72
2022/07/27 04:36:01;;;;;;;19.92;12.15;;;;;;;;;;5112628;28;20059;-70
2022/07/27 04:39:05;;;;;;;18.45;11.40;;;;;;;;;;5100525;28;20043;-70
2022/07/27 04:42:09;;;;;;;31.35;11.18;;;;;;;;;;5112771;28;20504;-70
2022/07/27 04:45:14;;;;;;;18.48;11.20;;;;;;;;;;5112473;28;20038;-70
2022/07/27 04:48:19;;;;;;;14.77;10.65;;;;;;;;;;5111723;28;20410;-71
2022/07/27 04:51:24;;;;;;;20.73;10.25;;;;;;;;;;5099599;28;20387;-71
2022/07/27 04:54:29;;;;;;;23.00;10.85;;;;;;;;;;5111617;28;20058;-70
2022/07/27 04:57:33;;;;;;;28.10;10.43;;;;;;;;;;5111698;28;20055;-71
2022/07/27 05:00:38;;;;;;;17.48;9.10;;;;;;;;;;5111826;28;20494;-71
2022/07/27 05:03:43;;;;;;;23.15;9.93;;;;;;;;;;5111731;28;20047;-71
2022/07/27 05:06:47;;;;;;;28.73;9.77;;;;;;;;;;5111404;28;20098;-70
2022/07/27 05:09:52;;;;;;;17.63;9.30;;;;;;;;;;5111492;28;20036;-71
2022/07/27 05:12:56;;;;;;;27.83;10.70;;;;;;;;;;5112672;28;20040;-71
2022/07/27 05:16:01;;;;;;;30.48;11.85;;;;;;;;;;5099601;28;20055;-71
2022/07/27 05:19:06;;;;;;;26.23;12.07;;;;;;;;;;5112480;28;20043;-71
2022/07/27 05:22:12;;;;;;;23.88;11.80;;;;;;;;;;5111904;28;20639;-70
2022/07/27 05:25:18;;;;;;;36.20;12.30;;;;;;;;;;5099725;28;20506;-72
2022/07/27 05:28:22;;;;;;;40.88;19.05;;;;;;;;;;5112223;28;20042;-69
2022/07/27 05:31:26;;;;;;;48.83;26.27;;;;;;;;;;5112221;28;20046;-70
2022/07/27 05:34:32;;;;;;;49.28;23.05;;;;;;;;;;5111855;28;20042;-70
2022/07/27 05:37:37;;;;;;;46.47;19.10;;;;;;;;;;5099119;28;20463;-71
2022/07/27 05:40:43;;;;;;;29.27;13.80;;;;;;;;;;5099582;28;20035;-72
2022/07/27 05:43:47;;;;;;;32.20;15.27;;;;;;;;;;5111750;28;20035;-72
2022/07/27 05:46:51;;;;;;;35.10;15.77;;;;;;;;;;5087078;28;20066;-72
2022/07/27 05:49:56;;;;;;;34.10;15.10;;;;;;;;;;5112276;28;20043;-72
2022/07/27 05:53:00;;;;;;;28.77;17.52;;;;;;;;;;5111593;28;20439;-74
2022/07/27 05:56:06;;;;;;;46.60;14.65;;;;;;;;;;5112805;28;20055;-74
2022/07/27 05:59:11;;;;;;;34.67;13.23;;;;;;;;;;5111915;28;20046;-74
2022/07/27 06:02:16;;;;;;;28.55;11.85;;;;;;;;;;5112504;28;20063;-74
2022/07/27 06:05:20;;;;;;;30.55;12.63;;;;;;;;;;5112172;28;20043;-73
2022/07/27 06:08:24;;;;;;;36.15;12.88;;;;;;;;;;5099586;28;20046;-74
2022/07/27 06:11:28;;;;;;;23.20;12.50;;;;;;;;;;5111490;28;20043;-75
2022/07/27 06:14:34;;;;;;;24.83;13.95;;;;;;;;;;5099778;28;20038;-73
2022/07/27 06:17:38;;;;;;;32.78;14.57;;;;;;;;;;5115178;28;20051;-74
2022/07/27 06:20:44;;;;;;;27.23;12.35;;;;;;;;;;5102682;28;20039;-72
2022/07/27 06:23:48;;;;;;;27.38;11.88;;;;;;;;;;5115329;28;20046;-74
2022/07/27 06:26:53;;;;;;;34.47;10.85;;;;;;;;;;5116461;28;20034;-79
2022/07/27 06:29:57;;;;;;;23.17;9.73;;;;;;;;;;5115153;28;20067;-74
2022/07/27 06:33:05;;;;;;;17.25;9.60;;;;;;;;;;5114845;28;20500;-73
2022/07/27 06:36:10;;;;;;;23.27;9.38;;;;;;;;;;5114992;28;20054;-73
2022/07/27 06:39:14;;;;;;;18.55;9.10;;;;;;;;;;5114896;28;20050;-71
2022/07/27 06:42:19;;;;;;;17.83;9.43;;;;;;;;;;5103194;28;20047;-74
2022/07/27 06:45:23;;;;;;;14.32;8.95;;;;;;;;;;5102819;28;20501;-78
2022/07/27 06:48:27;;;;;;;21.05;9.07;;;;;;;;;;5116179;28;20039;-76
2022/07/27 06:51:31;;;;;;;20.45;8.32;;;;;;;;;;5116969;28;20039;-73
2022/07/27 06:54:39;;;;;;;12.90;7.28;;;;;;;;;;5116026;28;20031;-73
2022/07/27 06:57:45;;;;;;;17.25;8.30;;;;;;;;;;5115516;28;20039;-77
2022/07/27 07:00:49;;;;;;;17.50;8.10;;;;;;;;;;5115259;28;20043;-75
2022/07/27 07:03:54;;;;;;;18.60;8.90;;;;;;;;;;5115499;28;20044;-76
2022/07/27 07:07:00;;;;;;;15.15;9.18;;;;;;;;;;5115134;28;20041;-77
2022/07/27 07:10:05;;;;;;;20.17;9.80;;;;;;;;;;5116793;28;20032;-77
2022/07/27 07:13:09;;;;;;;20.60;9.80;;;;;;;;;;5104890;28;20035;-81
2022/07/27 07:16:14;;;;;;;31.35;9.52;;;;;;;;;;5113975;28;20044;-72
2022/07/27 07:19:18;;;;;;;19.70;9.32;;;;;;;;;;5114171;28;20395;-75
2022/07/27 07:22:24;;;;;;;21.02;9.63;;;;;;;;;;5115788;28;20043;-75
2022/07/27 07:25:28;;;;;;;17.27;8.55;;;;;;;;;;5102499;28;20045;-76
2022/07/27 07:28:32;;;;;;;13.52;8.45;;;;;;;;;;5114729;28;20032;-79
2022/07/27 07:31:37;;;;;;;26.90;8.63;;;;;;;;;;5115495;28;20031;-76
2022/07/27 07:34:42;;;;;;;13.57;8.05;;;;;;;;;;5105316;28;20042;-80
2022/07/27 07:37:47;;;;;;;21.95;8.77;;;;;;;;;;5102949;28;20062;-75
2022/07/27 07:40:51;;;;;;;20.55;8.30;;;;;;;;;;5115226;28;20036;-81
2022/07/27 07:43:55;;;;;;;14.32;7.85;;;;;;;;;;5103986;28;20377;-79
2022/07/27 07:47:00;;;;;;;18.52;7.57;;;;;;;;;;5118866;28;20635;-80
2022/07/27 07:50:05;;;;;;;15.07;7.50;;;;;;;;;;5115156;28;20046;-80
2022/07/27 07:53:09;;;;;;;20.83;7.53;;;;;;;;;;5118775;28;20039;-80
2022/07/27 07:56:13;;;;;;;18.27;7.85;;;;;;;;;;5103328;28;20047;-80
2022/07/27 07:59:17;;;;;;;22.08;8.02;;;;;;;;;;5105216;28;20020;-81
2022/07/27 08:02:22;;;;;;;14.50;7.45;;;;;;;;;;5117376;28;20047;-83
2022/07/27 08:05:27;;;;;;;15.90;8.02;;;;;;;;;;5116674;28;20036;-83
2022/07/27 08:08:32;;;;;;;28.27;8.63;;;;;;;;;;5091014;28;20039;-80
2022/07/27 08:11:37;;;;;;;11.30;7.63;;;;;;;;;;5116053;28;20051;-80
2022/07/27 08:14:41;;;;;;;11.18;7.90;;;;;;;;;;5113802;28;20391;-79
2022/07/27 08:17:46;;;;;;;19.50;8.48;;;;;;;;;;5102467;28;20040;-80
2022/07/27 08:20:50;;;;;;;14.93;7.60;;;;;;;;;;5102942;28;20039;-81
2022/07/27 08:23:55;;;;;;;19.30;8.30;;;;;;;;;;5115495;28;20047;-79
2022/07/27 08:26:59;;;;;;;15.00;7.90;;;;;;;;;;5114903;28;20042;-82
2022/07/27 08:30:05;;;;;;;10.57;7.13;;;;;;;;;;5115472;28;20043;-82
2022/07/27 08:33:12;;;;;;;13.27;7.28;;;;;;;;;;5115407;28;20036;-79
2022/07/27 08:36:16;;;;;;;11.30;8.02;;;;;;;;;;5116514;28;20056;-83
2022/07/27 08:39:20;;;;;;;13.68;9.02;;;;;;;;;;5117600;28;20394;-82
2022/07/27 08:42:25;;;;;;;16.42;9.20;;;;;;;;;;5119073;28;20040;-82
2022/07/27 08:45:30;;;;;;;14.55;8.82;;;;;;;;;;5120837;28;20046;-81
2022/07/27 08:48:37;;;;;;;18.90;9.07;;;;;;;;;;5115910;28;20391;-80
2022/07/27 08:51:42;;;;;;;15.13;8.30;;;;;;;;;;5115858;28;20048;-81
2022/07/27 08:54:47;;;;;;;15.00;8.60;;;;;;;;;;5116699;28;20042;-82
2022/07/27 08:57:52;;;;;;;16.90;9.27;;;;;;;;;;5115841;28;20043;-85
2022/07/27 09:00:56;;;;;;;13.75;8.20;;;;;;;;;;5113599;28;20032;-80
2022/07/27 09:04:01;;;;;;;16.23;9.68;;;;;;;;;;5113672;28;20051;-81
2022/07/27 09:07:05;;;;;;;17.63;9.65;;;;;;;;;;5114272;28;20038;-81
2022/07/27 09:10:09;;;;;;;12.48;8.63;;;;;;;;;;5112915;28;20060;-77
2022/07/27 09:13:28;;;;;;;13.60;8.45;;;;;;;;;;5112291;28;20040;-74
2022/07/27 09:16:32;;;;;;;16.98;8.95;;;;;;;;;;5113069;28;20523;-77
2022/07/27 09:19:52;;;;;;;22.80;8.38;;;;;;;;;;5111663;28;20720;-73
2022/07/27 09:22:57;;;;;;;16.35;9.15;;;;;;;;;;5114412;28;20043;-85
2022/07/27 09:26:11;;;;;;;16.08;9.52;;;;;;;;;;5112962;28;20476;-71
2022/07/27 09:29:16;;;;;;;13.13;8.52;;;;;;;;;;5098774;28;20046;-77
2022/07/27 09:32:20;;;;;;;16.15;8.45;;;;;;;;;;5112635;28;20042;-73
2022/07/27 09:35:29;;;;;;;15.82;8.07;;;;;;;;;;5099745;28;20102;-75
2022/07/27 09:38:33;;;;;;;11.60;7.85;;;;;;;;;;5113069;28;20043;-81
2022/07/27 09:42:00;;;;;;;15.25;8.23;;;;;;;;;;5113329;28;20032;-77
2022/07/27 09:45:04;;;;;;;10.25;8.10;;;;;;;;;;5113296;28;20110;-80
2022/07/27 09:48:10;;;;;;;13.35;7.93;;;;;;;;;;5113425;28;20037;-73
2022/07/27 09:51:15;;;;;;;15.35;8.75;;;;;;;;;;5102052;28;20035;-73
2022/07/27 09:54:19;;;;;;;12.40;7.63;;;;;;;;;;5116447;28;20036;-73
2022/07/27 09:57:24;;;;;;;13.48;8.52;;;;;;;;;;5117469;28;20059;-77
2022/07/27 10:00:28;;;;;;;12.85;7.88;;;;;;;;;;5115649;28;20054;-77
2022/07/27 10:03:33;;;;;;;19.27;8.60;;;;;;;;;;5115263;28;20055;-71
2022/07/27 10:06:37;;;;;;;12.60;9.02;;;;;;;;;;5104215;28;20040;-78
2022/07/27 10:09:42;;;;;;;17.45;9.73;;;;;;;;;;5115772;28;20036;-72
2022/07/27 10:12:47;;;;;;;15.43;9.63;;;;;;;;;;5114866;28;20395;-75
2022/07/27 10:15:53;;;;;;;15.45;8.65;;;;;;;;;;5114733;28;20031;-73
2022/07/27 10:19:07;;;;;;;16.30;9.18;;;;;;;;;;5114941;28;20529;-74
2022/07/27 10:22:11;;;;;;;17.92;9.55;;;;;;;;;;5114317;28;20040;-72
2022/07/27 10:25:16;;;;;;;13.05;9.43;;;;;;;;;;5114071;28;20479;-69
2022/07/27 10:28:20;;;;;;;13.80;9.05;;;;;;;;;;5113389;28;20039;-69
2022/07/27 10:31:26;;;;;;;13.25;9.85;;;;;;;;;;5114286;28;20043;-72
2022/07/27 10:34:40;;;;;;;21.85;10.85;;;;;;;;;;5114284;28;20531;-71
2022/07/27 10:38:05;;;;;;;11.85;8.52;;;;;;;;;;5101858;28;20047;-73
2022/07/27 10:41:27;;;;;;;15.82;9.27;;;;;;;;;;5114170;28;20032;-76
2022/07/27 10:44:31;;;;;;;13.27;9.45;;;;;;;;;;5114826;28;20486;-81
2022/07/27 10:47:49;;;;;;;16.83;9.18;;;;;;;;;;5115526;28;20042;-80
2022/07/27 10:50:53;;;;;;;13.05;8.75;;;;;;;;;;5116150;28;20027;-74
2022/07/27 10:53:58;;;;;;;13.60;9.18;;;;;;;;;;5114504;28;20048;-73
2022/07/27 10:57:03;;;;;;;16.20;9.82;;;;;;;;;;5113526;28;20054;-71
2022/07/27 11:00:08;;;;;;;15.40;8.65;;;;;;;;;;5113498;28;20065;-70
2022/07/27 11:03:23;;;;;;;10.65;8.63;;;;;;;;;;5113088;28;20483;-73
2022/07/27 11:06:28;;;;;;;13.38;9.10;;;;;;;;;;5101348;28;20039;-72
2022/07/27 11:09:40;;;;;;;11.90;9.40;;;;;;;;;;5112934;28;20040;-73
2022/07/27 11:12:44;;;;;;;16.20;9.82;;;;;;;;;;5113279;28;20661;-72
2022/07/27 11:15:51;;;;;;;17.70;9.45;;;;;;;;;;5113340;28;20376;-71
2022/07/27 11:19:04;;;;;;;16.70;10.52;;;;;;;;;;5100868;28;20035;-71
2022/07/27 11:22:08;;;;;;;19.58;10.40;;;;;;;;;;5113347;28;20042;-72
2022/07/27 11:25:12;;;;;;;22.52;12.07;;;;;;;;;;5100451;28;20046;-71
2022/07/27 11:28:17;;;;;;;13.50;9.57;;;;;;;;;;5113147;28;20062;-72
2022/07/27 11:31:21;;;;;;;14.32;9.88;;;;;;;;;;5113229;28;20054;-74
2022/07/27 11:34:37;;;;;;;19.88;9.73;;;;;;;;;;5112904;28;20050;-72
2022/07/27 11:37:42;;;;;;;17.83;9.77;;;;;;;;;;5100169;28;20051;-71
2022/07/27 11:40:51;;;;;;;16.40;8.73;;;;;;;;;;5100047;28;20039;-70
2022/07/27 11:43:59;;;;;;;12.93;8.60;;;;;;;;;;5114095;28;20360;-71
2022/07/27 11:47:04;;;;;;;11.15;7.38;;;;;;;;;;5112885;28;20035;-71
2022/07/27 11:50:10;;;;;;;16.65;7.97;;;;;;;;;;5113188;28;20043;-72
2022/07/27 11:53:19;;;;;;;14.20;7.43;;;;;;;;;;5112710;28;20042;-70
2022/07/27 11:56:25;;;;;;;11.60;6.78;;;;;;;;;;5112531;28;20594;-72
2022/07/27 11:59:30;;;;;;;8.70;6.70;;;;;;;;;;5112571;28;20035;-71
2022/07/27 12:02:34;;;;;;;10.10;6.68;;;;;;;;;;5112395;28;20043;-71
2022/07/27 12:05:38;;;;;;;12.52;7.20;;;;;;;;;;5112601;28;20039;-71
2022/07/27 12:08:43;;;;;;;11.40;6.53;;;;;;;;;;5112452;28;20035;-72
2022/07/27 12:11:49;;;;;;;14.05;6.63;;;;;;;;;;5112597;28;20372;-70
2022/07/27 12:14:55;;;;;;;24.85;7.50;;;;;;;;;;5099905;28;20031;-72
2022/07/27 12:18:00;;;;;;;9.30;5.93;;;;;;;;;;5112956;28;20061;-71
2022/07/27 12:21:14;;;;;;;15.75;6.13;;;;;;;;;;5114192;28;20036;-72
2022/07/27 12:24:19;;;;;;;10.85;6.30;;;;;;;;;;5112423;28;20044;-70
2022/07/27 12:27:25;;;;;;;12.45;5.60;;;;;;;;;;5112189;28;20038;-74
2022/07/27 12:30:30;;;;;;;10.45;5.82;;;;;;;;;;5113561;28;20454;-73
2022/07/27 12:33:35;;;;;;;10.27;6.22;;;;;;;;;;5100863;28;20478;-73
2022/07/27 12:36:41;;;;;;;7.82;5.13;;;;;;;;;;5112580;28;20499;-75
2022/07/27 12:39:49;;;;;;;9.32;5.93;;;;;;;;;;5088948;28;20036;-72
2022/07/27 12:43:01;;;;;;;10.18;5.60;;;;;;;;;;5099907;28;20044;-74
2022/07/27 12:46:12;;;;;;;14.85;6.28;;;;;;;;;;5099420;28;20043;-72
2022/07/27 12:49:23;;;;;;;13.23;5.68;;;;;;;;;;5112666;28;20031;-76
2022/07/27 12:52:27;;;;;;;9.48;5.40;;;;;;;;;;5112748;28;20036;-74
2022/07/27 12:55:33;;;;;;;11.20;5.93;;;;;;;;;;5112828;28;20036;-75
2022/07/27 12:58:38;;;;;;;11.07;5.35;;;;;;;;;;5111906;28;20039;-73
2022/07/27 13:01:43;;;;;;;8.80;5.80;;;;;;;;;;5111623;28;20056;-71
2022/07/27 13:04:48;;;;;;;9.60;5.20;;;;;;;;;;5111920;28;20036;-71
2022/07/27 13:07:53;;;;;;;30.25;6.75;;;;;;;;;;5111620;28;20035;-72
2022/07/27 13:10:59;;;;;;;11.20;5.40;;;;;;;;;;5111692;28;20055;-74
2022/07/27 13:14:04;;;;;;;10.65;5.40;;;;;;;;;;5111799;28;20043;-75
2022/07/27 13:17:08;;;;;;;12.55;5.80;;;;;;;;;;5111907;28;20047;-77
2022/07/27 13:20:13;;;;;;;12.98;5.50;;;;;;;;;;5112622;28;20046;-73
2022/07/27 13:23:17;;;;;;;10.35;5.63;;;;;;;;;;5112385;28;20047;-77
2022/07/27 13:26:22;;;;;;;9.68;6.07;;;;;;;;;;5103972;28;20060;-78
2022/07/27 13:29:28;;;;;;;162.25;27.05;;;;;;;;;;5116358;28;20044;-78
2022/07/27 13:32:32;;;;;;;27.15;7.53;;;;;;;;;;5116544;28;20047;-74
2022/07/27 13:35:36;;;;;;;23.60;8.73;;;;;;;;;;5117722;28;20040;-76
2022/07/27 13:38:42;;;;;;;13.68;5.57;;;;;;;;;;5116212;28;20043;-73
2022/07/27 13:41:51;;;;;;;22.90;5.20;;;;;;;;;;5116852;28;20046;-83
2022/07/27 13:45:00;;;;;;;19.45;5.15;;;;;;;;;;5105242;28;20411;-76
2022/07/27 13:48:04;;;;;;;15.32;4.78;;;;;;;;;;5117795;28;20039;-75
2022/07/27 13:51:09;;;;;;;13.82;5.38;;;;;;;;;;5117235;28;20031;-75
2022/07/27 13:54:13;;;;;;;14.00;4.90;;;;;;;;;;5116318;28;20036;-77
2022/07/27 13:57:17;;;;;;;23.65;5.70;;;;;;;;;;5116504;28;20512;-75
2022/07/27 14:00:22;;;;;;;21.42;5.85;;;;;;;;;;5115750;28;20036;-78
2022/07/27 14:03:26;;;;;;;14.02;5.75;;;;;;;;;;5116125;28;20058;-78
2022/07/27 14:06:32;;;;;;;15.48;5.00;;;;;;;;;;5117211;28;20044;-78
2022/07/27 14:13:03;;;;;;;20.42;5.10;;;;;;;;;;5115546;28;20035;-76
2022/07/27 14:16:08;;;;;;;13.45;5.03;;;;;;;;;;5116314;28;20052;-78
2022/07/27 14:19:13;;;;;;;12.48;5.28;;;;;;;;;;5115838;28;20036;-79
2022/07/27 14:22:17;;;;;;;17.13;5.38;;;;;;;;;;5116633;28;20031;-76
2022/07/27 14:25:21;;;;;;;15.05;5.38;;;;;;;;;;5116264;28;20039;-75
2022/07/27 14:28:27;;;;;;;13.93;5.45;;;;;;;;;;5103581;28;20042;-75
2022/07/27 14:31:33;;;;;;;23.45;5.63;;;;;;;;;;5116096;28;20367;-76
2022/07/27 14:34:38;;;;;;;20.92;6.18;;;;;;;;;;5115727;28;20042;-77
2022/07/27 14:37:42;;;;;;;18.08;5.72;;;;;;;;;;5115907;28;20519;-76
2022/07/27 14:40:47;;;;;;;17.70;6.07;;;;;;;;;;5117469;28;20036;-77
2022/07/27 14:43:51;;;;;;;17.45;5.78;;;;;;;;;;5114897;28;20472;-75
2022/07/27 14:46:56;;;;;;;12.75;5.45;;;;;;;;;;5102740;28;20383;-77
2022/07/27 14:50:00;;;;;;;16.50;5.95;;;;;;;;;;5115408;28;20044;-76
2022/07/27 14:53:04;;;;;;;11.40;4.70;;;;;;;;;;5115203;28;20039;-73
2022/07/27 14:56:09;;;;;;;15.23;4.72;;;;;;;;;;5114329;28;20086;-79
2022/07/27 14:59:13;;;;;;;9.52;5.13;;;;;;;;;;5115100;28;20031;-78
2022/07/27 15:02:18;;;;;;;12.57;5.32;;;;;;;;;;5114150;28;20483;-83
2022/07/27 15:05:22;;;;;;;11.77;5.72;;;;;;;;;;5121881;28;20047;-83
2022/07/27 15:08:27;;;;;;;15.00;5.18;;;;;;;;;;5114409;28;20490;-68
2022/07/27 15:11:31;;;;;;;11.82;5.07;;;;;;;;;;5113526;28;20588;-72
2022/07/27 15:14:38;;;;;;;8.73;4.60;;;;;;;;;;5113614;28;20035;-69
2022/07/27 15:17:42;;;;;;;12.10;5.07;;;;;;;;;;5113106;28;20376;-74
2022/07/27 15:20:48;;;;;;;14.57;4.88;;;;;;;;;;5113696;28;20046;-68
2022/07/27 15:23:52;;;;;;;16.65;5.45;;;;;;;;;;5113324;28;20047;-68
2022/07/27 15:26:56;;;;;;;14.05;5.38;;;;;;;;;;5113584;28;20044;-70
2022/07/27 15:30:01;;;;;;;9.38;5.22;;;;;;;;;;5112859;28;20065;-70
2022/07/27 15:33:05;;;;;;;14.27;5.20;;;;;;;;;;5100808;28;20031;-69
2022/07/27 15:36:10;;;;;;;14.30;4.72;;;;;;;;;;5113143;28;20042;-70
2022/07/27 15:39:19;;;;;;;25.02;6.15;;;;;;;;;;5113379;28;20403;-73
2022/07/27 15:42:24;;;;;;;14.30;5.13;;;;;;;;;;5113399;28;20031;-74
2022/07/27 15:45:28;;;;;;;13.30;5.15;;;;;;;;;;5116022;28;20054;-76
2022/07/27 15:48:33;;;;;;;10.07;4.70;;;;;;;;;;5114240;28;20040;-79
2022/07/27 15:51:38;;;;;;;8.85;4.30;;;;;;;;;;5102182;28;20044;-76
2022/07/27 15:54:43;;;;;;;11.77;4.78;;;;;;;;;;5078590;28;20036;-72
2022/07/27 15:57:48;;;;;;;11.95;4.28;;;;;;;;;;5112859;28;20056;-85
2022/07/27 16:00:58;;;;;;;14.93;4.32;;;;;;;;;;5103163;28;20032;-80
2022/07/27 16:04:03;;;;;;;16.77;5.05;;;;;;;;;;5115105;28;20040;-84
2022/07/27 16:07:08;;;;;;;16.92;4.70;;;;;;;;;;5115448;28;20047;-78
2022/07/27 16:10:12;;;;;;;17.40;5.70;;;;;;;;;;5114126;28;20046;-80
2022/07/27 16:13:16;;;;;;;12.82;5.15;;;;;;;;;;5115664;28;20383;-80
2022/07/27 16:16:20;;;;;;;13.15;6.03;;;;;;;;;;5115875;28;20051;-78
2022/07/27 16:19:25;;;;;;;13.38;4.30;;;;;;;;;;5102588;28;20031;-79
2022/07/27 16:22:32;;;;;;;12.38;4.97;;;;;;;;;;5114258;28;20035;-77
2022/07/27 16:25:36;;;;;;;17.98;5.28;;;;;;;;;;5117439;28;20062;-81
2022/07/27 16:28:43;;;;;;;18.23;4.78;;;;;;;;;;5114766;28;20036;-80
2022/07/27 16:31:47;;;;;;;10.23;4.88;;;;;;;;;;5101193;28;20045;-77
2022/07/27 16:34:52;;;;;;;16.23;4.65;;;;;;;;;;5116465;28;20031;-82
2022/07/27 16:37:56;;;;;;;18.13;4.95;;;;;;;;;;5116576;28;20047;-84
2022/07/27 16:41:04;;;;;;;13.73;4.43;;;;;;;;;;5116997;28;20032;-84
2022/07/27 16:44:09;;;;;;;8.43;4.00;;;;;;;;;;5092183;28;20036;-82
2022/07/27 16:47:13;;;;;;;8.65;4.22;;;;;;;;;;5103930;28;20040;-79
2022/07/27 16:50:19;;;;;;;11.80;4.43;;;;;;;;;;5102797;28;20039;-79
2022/07/27 16:53:24;;;;;;;12.10;4.60;;;;;;;;;;5114395;28;20043;-81
2022/07/27 16:56:28;;;;;;;14.40;4.63;;;;;;;;;;5113110;28;20044;-77
2022/07/27 16:59:32;;;;;;;11.23;4.40;;;;;;;;;;5111438;28;20048;-72
2022/07/27 17:02:37;;;;;;;10.20;4.88;;;;;;;;;;5112406;28;20043;-76
2022/07/27 17:05:41;;;;;;;11.15;3.97;;;;;;;;;;5111207;28;20042;-72
2022/07/27 17:08:45;;;;;;;10.40;3.97;;;;;;;;;;5097901;28;20101;-73
2022/07/27 17:11:50;;;;;;;9.85;3.83;;;;;;;;;;5111120;28;20044;-73
2022/07/27 17:14:55;;;;;;;9.38;4.13;;;;;;;;;;5111331;28;20360;-73
2022/07/27 17:17:59;;;;;;;12.35;4.25;;;;;;;;;;5110947;28;20047;-73
2022/07/27 17:21:04;;;;;;;11.57;4.35;;;;;;;;;;5098231;28;20405;-76
2022/07/27 17:24:09;;;;;;;11.05;4.18;;;;;;;;;;5110948;28;20055;-73
2022/07/27 17:27:12;;;;;;;15.32;4.82;;;;;;;;;;5110841;28;20031;-75
2022/07/27 17:30:17;;;;;;;10.40;4.57;;;;;;;;;;5111012;28;20043;-75
2022/07/27 17:33:22;;;;;;;14.88;5.28;;;;;;;;;;5111214;28;20036;-73
2022/07/27 17:36:26;;;;;;;16.33;5.70;;;;;;;;;;5111703;28;20039;-74
2022/07/27 17:39:30;;;;;;;22.05;5.55;;;;;;;;;;5111461;28;20499;-73
2022/07/27 17:42:34;;;;;;;13.88;4.88;;;;;;;;;;5099046;28;20035;-75
2022/07/27 17:45:39;;;;;;;14.43;5.75;;;;;;;;;;5111450;28;20514;-73
2022/07/27 17:48:44;;;;;;;12.10;5.00;;;;;;;;;;5109696;28;20039;-73
2022/07/27 17:51:48;;;;;;;11.20;5.15;;;;;;;;;;5097093;28;20038;-73
2022/07/27 17:54:53;;;;;;;12.63;4.97;;;;;;;;;;5111097;28;20032;-74
2022/07/27 17:57:57;;;;;;;14.93;4.97;;;;;;;;;;5111200;28;20113;-75
2022/07/27 18:01:01;;;;;;;19.65;5.15;;;;;;;;;;5111471;28;20039;-73
2022/07/27 18:04:06;;;;;;;15.15;5.70;;;;;;;;;;5112060;28;20043;-74
2022/07/27 18:07:11;;;;;;;13.90;4.78;;;;;;;;;;5099348;28;20055;-74
2022/07/27 18:10:15;;;;;;;10.10;5.00;;;;;;;;;;5111651;28;20046;-73
2022/07/27 18:13:19;;;;;;;13.80;5.45;;;;;;;;;;5115270;28;20048;-73
2022/07/27 18:16:24;;;;;;;11.40;5.28;;;;;;;;;;5115853;28;20040;-74
2022/07/27 18:19:28;;;;;;;17.85;5.95;;;;;;;;;;5102470;28;20040;-75